Wetterdaten: Woche 22.08.22 - 28.08.22 (KW34)
Datum Zeit Temp. Aussen Temp. o. S. Temp +5cm Feuchte Auss Luftdruck Regen Sonnenschein Regendauer Solar Windben Empfang
22.08.2022 00:00 19,3 C 18,2 C 14,8 C 75 % 1016,6 hPa 0,0 l/m 0,00 h 0,00 h 0 W/m 0,9 km/h (0 Bft) 98,89 %
22.08.2022 01:00 18,7 C 17,1 C 13,8 C 80 % 1016,5 hPa 0,0 l/m 0,00 h 0,00 h 0 W/m 0,0 km/h (0 Bft) 96,73 %
22.08.2022 02:00 17,8 C 16,1 C 12,9 C 84 % 1016,4 hPa 0,0 l/m 0,00 h 0,00 h 0 W/m 0,1 km/h (0 Bft) 97,73 %
22.08.2022 03:00 16,9 C 15,5 C 12,3 C 87 % 1016,2 hPa 0,0 l/m 0,00 h 0,00 h 0 W/m 0,0 km/h (0 Bft) 99,00 %
22.08.2022 04:00 16,3 C 15,0 C 12,1 C 89 % 1016,1 hPa 0,0 l/m 0,00 h 0,00 h 0 W/m 0,0 km/h (0 Bft) 95,45 %
22.08.2022 05:00 15,9 C 14,5 C 11,6 C 90 % 1015,8 hPa 0,0 l/m 0,00 h 0,00 h 0 W/m 0,0 km/h (0 Bft) 98,55 %
22.08.2022 06:00 15,4 C 14,4 C 11,3 C 91 % 1015,7 hPa 0,0 l/m 0,00 h 0,00 h 9 W/m 0,2 km/h (0 Bft) 97,80 %
22.08.2022 07:00 15,5 C 15,5 C 12,1 C 93 % 1016,0 hPa 0,0 l/m 0,00 h 0,00 h 46 W/m 0,7 km/h (0 Bft) 97,72 %
22.08.2022 08:00 17,2 C 18,2 C 14,1 C 93 % 1016,2 hPa 0,0 l/m 0,27 h 0,00 h 167 W/m 1,4 km/h (1 Bft) 97,30 %
22.08.2022 09:00 19,9 C 21,5 C 16,2 C 85 % 1016,2 hPa 0,0 l/m 0,23 h 0,00 h 210 W/m 3,5 km/h (1 Bft) 98,52 %
22.08.2022 10:00 21,5 C 22,5 C 17,8 C 76 % 1016,1 hPa 0,0 l/m 0,20 h 0,00 h 288 W/m 5,2 km/h (1 Bft) 95,74 %
22.08.2022 11:00 23,5 C 24,5 C 19,6 C 65 % 1015,6 hPa 0,0 l/m 0,57 h 0,00 h 342 W/m 6,3 km/h (2 Bft) 99,69 %
22.08.2022 12:00 24,4 C 25,4 C 20,5 C 57 % 1015,4 hPa 0,0 l/m 0,63 h 0,00 h 388 W/m 5,9 km/h (2 Bft) 97,38 %
22.08.2022 13:00 25,8 C 27,1 C 21,9 C 56 % 1015,0 hPa 0,0 l/m 1,00 h 0,00 h 483 W/m 6,1 km/h (2 Bft) 96,89 %
22.08.2022 14:00 26,9 C 28,8 C 22,5 C 53 % 1014,7 hPa 0,0 l/m 1,00 h 0,00 h 489 W/m 5,6 km/h (1 Bft) 98,60 %
22.08.2022 15:00 27,9 C 30,6 C 23,0 C 50 % 1014,3 hPa 0,0 l/m 1,00 h 0,00 h 557 W/m 7,4 km/h (2 Bft) 97,80 %
22.08.2022 16:00 28,5 C 30,3 C 23,4 C 48 % 1014,0 hPa 0,0 l/m 0,97 h 0,00 h 532 W/m 9,7 km/h (2 Bft) 96,39 %
22.08.2022 17:00 27,7 C 27,2 C 22,4 C 48 % 1013,5 hPa 0,0 l/m 0,03 h 0,00 h 188 W/m 4,8 km/h (1 Bft) 98,93 %
22.08.2022 18:00 27,3 C 27,4 C 22,1 C 50 % 1013,4 hPa 0,0 l/m 0,63 h 0,00 h 197 W/m 5,9 km/h (2 Bft) 97,13 %
22.08.2022 19:00 26,7 C 25,9 C 21,4 C 53 % 1013,2 hPa 0,0 l/m 0,07 h 0,00 h 68 W/m 7,8 km/h (2 Bft) 97,36 %
22.08.2022 20:00 25,8 C 24,7 C 20,4 C 55 % 1013,5 hPa 0,0 l/m 0,08 h 0,00 h 20 W/m 5,1 km/h (1 Bft) 96,85 %
22.08.2022 21:00 25,0 C 23,9 C 19,6 C 58 % 1013,9 hPa 0,0 l/m 0,00 h 0,00 h 0 W/m 4,9 km/h (1 Bft) 98,36 %
22.08.2022 22:00 24,2 C 23,0 C 19,0 C 60 % 1014,0 hPa 0,0 l/m 0,00 h 0,00 h 0 W/m 4,4 km/h (1 Bft) 97,72 %
22.08.2022 23:00 23,3 C 21,7 C 17,6 C 64 % 1013,9 hPa 0,0 l/m 0,00 h 0,00 h 0 W/m 1,6 km/h (1 Bft) 96,30 %
23.08.2022 14:00 30,2 C 35,2 C 23,9 C 50 % 1015,6 hPa 0,0 l/m 0,78 h 0,00 h 716 W/m 15,0 km/h (3 Bft) 98,83 %
23.08.2022 15:00 29,5 C 30,2 C 23,6 C 51 % 1015,6 hPa 0,0 l/m 0,30 h 0,00 h 335 W/m 9,4 km/h (2 Bft) 99,03 %
23.08.2022 16:00 29,7 C 31,0 C 24,2 C 51 % 1015,6 hPa 0,0 l/m 0,70 h 0,00 h 537 W/m 10,9 km/h (2 Bft) 97,30 %
23.08.2022 17:00 30,4 C 33,5 C 24,5 C 50 % 1015,5 hPa 0,0 l/m 0,97 h 0,00 h 459 W/m 10,3 km/h (2 Bft) 97,86 %
23.08.2022 18:00 30,4 C 32,6 C 24,2 C 49 % 1015,3 hPa 0,0 l/m 0,80 h 0,00 h 249 W/m 5,2 km/h (1 Bft) 97,50 %
23.08.2022 19:00 28,9 C 27,0 C 22,1 C 54 % 1015,4 hPa 0,0 l/m 0,00 h 0,00 h 39 W/m 2,9 km/h (1 Bft) 97,73 %
23.08.2022 20:00 27,1 C 24,5 C 19,9 C 60 % 1015,9 hPa 0,0 l/m 0,00 h 0,00 h 16 W/m 1,3 km/h (1 Bft) 99,14 %
23.08.2022 21:00 24,9 C 22,2 C 18,1 C 68 % 1016,5 hPa 0,0 l/m 0,00 h 0,00 h 0 W/m 0,0 km/h (0 Bft) 96,49 %
23.08.2022 22:00 23,1 C 20,9 C 17,0 C 75 % 1016,8 hPa 0,0 l/m 0,00 h 0,00 h 0 W/m 0,0 km/h (0 Bft) 98,32 %
23.08.2022 23:00 21,7 C 20,0 C 16,3 C 78 % 1017,0 hPa 0,0 l/m 0,00 h 0,00 h 0 W/m 0,2 km/h (0 Bft) 98,08 %
24.08.2022 00:00 21,0 C 19,3 C 15,8 C 81 % 1017,0 hPa 0,0 l/m 0,00 h 0,00 h 0 W/m 0,1 km/h (0 Bft) 93,73 %
24.08.2022 01:00 20,2 C 18,9 C 15,6 C 84 % 1017,2 hPa 0,0 l/m 0,00 h 0,00 h 0 W/m 0,1 km/h (0 Bft) 97,23 %
24.08.2022 02:00 19,7 C 18,4 C 15,1 C 86 % 1017,2 hPa 0,0 l/m 0,00 h 0,00 h 0 W/m 0,1 km/h (0 Bft) 98,26 %
24.08.2022 03:00 19,2 C 17,8 C 14,4 C 87 % 1017,2 hPa 0,0 l/m 0,00 h 0,00 h 0 W/m 0,1 km/h (0 Bft) 97,86 %
24.08.2022 04:00 18,6 C 17,1 C 14,0 C 89 % 1017,3 hPa 0,0 l/m 0,00 h 0,00 h 0 W/m 0,0 km/h (0 Bft) 97,08 %
24.08.2022 05:00 18,1 C 16,7 C 13,5 C 90 % 1017,4 hPa 0,0 l/m 0,00 h 0,00 h 0 W/m 0,0 km/h (0 Bft) 98,26 %
24.08.2022 06:00 17,6 C 16,6 C 13,3 C 92 % 1017,4 hPa 0,0 l/m 0,00 h 0,00 h 8 W/m 0,0 km/h (0 Bft) 98,47 %
24.08.2022 07:00 17,6 C 16,9 C 13,6 C 93 % 1017,9 hPa 0,0 l/m 0,00 h 0,00 h 19 W/m 0,1 km/h (0 Bft) 95,95 %
24.08.2022 08:00 18,2 C 18,8 C 15,2 C 93 % 1018,1 hPa 0,0 l/m 0,20 h 0,00 h 91 W/m 2,4 km/h (1 Bft) 98,47 %
24.08.2022 09:00 21,6 C 24,5 C 17,6 C 82 % 1018,5 hPa 0,0 l/m 0,63 h 0,00 h 263 W/m 5,7 km/h (1 Bft) 98,79 %
24.08.2022 10:00 23,9 C 24,3 C 19,0 C 71 % 1018,8 hPa 0,0 l/m 0,33 h 0,00 h 255 W/m 5,3 km/h (1 Bft) 95,44 %
24.08.2022 11:00 26,0 C 27,8 C 21,7 C 63 % 1018,7 hPa 0,0 l/m 0,97 h 0,00 h 680 W/m 5,7 km/h (1 Bft) 99,48 %
24.08.2022 12:00 28,5 C 32,3 C 24,0 C 55 % 1018,4 hPa 0,0 l/m 0,95 h 0,00 h 600 W/m 6,4 km/h (2 Bft) 96,76 %
24.08.2022 13:00 30,3 C 31,7 C 24,5 C 51 % 1018,0 hPa 0,0 l/m 0,90 h 0,00 h 757 W/m 7,2 km/h (2 Bft) 97,51 %
24.08.2022 14:00 32,5 C 39,8 C 25,5 C 45 % 1017,6 hPa 0,0 l/m 0,97 h 0,00 h 784 W/m 8,3 km/h (2 Bft) 98,50 %
24.08.2022 15:00 32,4 C 35,2 C 25,7 C 44 % 1017,4 hPa 0,0 l/m 0,73 h 0,00 h 563 W/m 6,6 km/h (2 Bft) 96,37 %
24.08.2022 16:00 33,4 C 35,9 C 26,7 C 42 % 1017,0 hPa 0,0 l/m 1,00 h 0,00 h 626 W/m 7,2 km/h (2 Bft) 98,29 %
24.08.2022 17:00 33,8 C 37,4 C 27,4 C 40 % 1016,6 hPa 0,0 l/m 1,00 h 0,00 h 454 W/m 6,6 km/h (2 Bft) 98,59 %
24.08.2022 18:00 33,8 C 36,0 C 26,5 C 41 % 1016,4 hPa 0,0 l/m 0,83 h 0,00 h 259 W/m 4,7 km/h (1 Bft) 95,46 %
24.08.2022 19:00 32,0 C 30,2 C 23,5 C 45 % 1016,4 hPa 0,0 l/m 0,00 h 0,00 h 40 W/m 4,1 km/h (1 Bft) 97,51 %
24.08.2022 20:00 29,2 C 26,9 C 21,4 C 55 % 1016,6 hPa 0,0 l/m 0,00 h 0,00 h 10 W/m 2,1 km/h (1 Bft) 97,11 %
24.08.2022 21:00 26,9 C 25,2 C 20,3 C 60 % 1016,9 hPa 0,0 l/m 0,00 h 0,00 h 0 W/m 2,5 km/h (1 Bft) 99,08 %
24.08.2022 22:00 25,6 C 24,2 C 19,9 C 62 % 1016,9 hPa 0,0 l/m 0,00 h 0,00 h 0 W/m 3,1 km/h (1 Bft) 96,94 %
24.08.2022 23:00 24,6 C 23,2 C 18,9 C 64 % 1016,9 hPa 0,0 l/m 0,00 h 0,00 h 0 W/m 2,2 km/h (1 Bft) 96,87 %
25.08.2022 00:00 23,4 C 22,0 C 18,0 C 69 % 1017,0 hPa 0,0 l/m 0,00 h 0,00 h 0 W/m 2,1 km/h (1 Bft) 99,93 %
25.08.2022 01:00 23,2 C 22,7 C 18,1 C 64 % 1017,0 hPa 0,0 l/m 0,00 h 0,00 h 0 W/m 2,9 km/h (1 Bft) 99,56 %
25.08.2022 02:00 23,2 C 22,2 C 18,2 C 62 % 1017,2 hPa 0,0 l/m 0,00 h 0,00 h 0 W/m 3,5 km/h (1 Bft) 97,00 %
25.08.2022 03:00 22,5 C 20,6 C 16,9 C 66 % 1017,3 hPa 0,0 l/m 0,00 h 0,00 h 0 W/m 1,6 km/h (1 Bft) 100,00 %
25.08.2022 04:00 20,8 C 18,9 C 15,3 C 74 % 1017,2 hPa 0,0 l/m 0,00 h 0,00 h 0 W/m 0,0 km/h (0 Bft) 98,76 %
25.08.2022 05:00 19,6 C 18,1 C 14,5 C 79 % 1016,9 hPa 0,0 l/m 0,00 h 0,00 h 0 W/m 0,0 km/h (0 Bft) 99,64 %
25.08.2022 06:00 18,8 C 17,7 C 14,3 C 81 % 1016,5 hPa 0,0 l/m 0,00 h 0,00 h 7 W/m 0,0 km/h (0 Bft) 99,93 %
25.08.2022 07:00 18,5 C 18,0 C 14,6 C 83 % 1016,4 hPa 0,0 l/m 0,00 h 0,00 h 22 W/m 1,3 km/h (1 Bft) 99,71 %
25.08.2022 08:00 20,0 C 20,7 C 16,7 C 80 % 1016,4 hPa 0,0 l/m 0,17 h 0,00 h 79 W/m 4,8 km/h (1 Bft) 99,78 %
25.08.2022 09:00 23,9 C 26,0 C 19,1 C 68 % 1016,5 hPa 0,0 l/m 0,67 h 0,00 h 267 W/m 7,5 km/h (2 Bft) 98,98 %
25.08.2022 10:00 25,8 C 26,0 C 20,7 C 62 % 1016,2 hPa 0,0 l/m 0,33 h 0,00 h 251 W/m 10,8 km/h (2 Bft) 97,30 %
25.08.2022 11:00 27,8 C 28,4 C 23,2 C 57 % 1015,7 hPa 0,0 l/m 0,83 h 0,00 h 573 W/m 11,8 km/h (2 Bft) 100,00 %
25.08.2022 12:00 30,0 C 35,5 C 25,9 C 52 % 1015,3 hPa 0,0 l/m 1,00 h 0,00 h 773 W/m 12,9 km/h (3 Bft) 99,93 %
25.08.2022 13:00 31,0 C 31,7 C 25,2 C 48 % 1014,7 hPa 0,0 l/m 0,92 h 0,00 h 714 W/m 11,0 km/h (2 Bft) 98,61 %
25.08.2022 14:00 32,6 C 40,1 C 26,2 C 44 % 1014,2 hPa 0,0 l/m 1,00 h 0,00 h 801 W/m 12,6 km/h (3 Bft) 98,47 %
25.08.2022 15:00 33,7 C 38,7 C 27,0 C 40 % 1013,7 hPa 0,0 l/m 1,00 h 0,00 h 734 W/m 10,2 km/h (2 Bft) 96,56 %
25.08.2022 16:00 33,9 C 36,4 C 27,2 C 39 % 1013,2 hPa 0,0 l/m 1,00 h 0,00 h 620 W/m 9,7 km/h (2 Bft) 99,56 %
25.08.2022 17:00 34,1 C 37,5 C 27,9 C 40 % 1012,7 hPa 0,0 l/m 1,00 h 0,00 h 462 W/m 9,1 km/h (2 Bft) 99,64 %
25.08.2022 18:00 33,9 C 36,1 C 26,9 C 40 % 1012,5 hPa 0,0 l/m 0,83 h 0,00 h 260 W/m 7,2 km/h (2 Bft) 96,64 %
25.08.2022 19:00 32,1 C 29,4 C 23,8 C 45 % 1012,4 hPa 0,0 l/m 0,00 h 0,00 h 38 W/m 3,5 km/h (1 Bft) 99,85 %
25.08.2022 20:00 29,1 C 26,0 C 21,1 C 55 % 1012,5 hPa 0,0 l/m 0,00 h 0,00 h 8 W/m 0,3 km/h (0 Bft) 99,93 %
25.08.2022 21:00 26,5 C 24,0 C 19,5 C 60 % 1012,7 hPa 0,0 l/m 0,00 h 0,00 h 0 W/m 1,1 km/h (0 Bft) 99,05 %
25.08.2022 22:00 24,8 C 22,7 C 18,5 C 64 % 1012,8 hPa 0,0 l/m 0,00 h 0,00 h 0 W/m 0,0 km/h (0 Bft) 99,78 %
25.08.2022 23:00 23,5 C 21,6 C 17,6 C 69 % 1013,0 hPa 0,0 l/m 0,00 h 0,00 h 0 W/m 0,0 km/h (0 Bft) 99,42 %
26.08.2022 00:00 22,6 C 21,3 C 17,7 C 69 % 1013,2 hPa 0,0 l/m 0,00 h 0,00 h 0 W/m 5,9 km/h (2 Bft) 99,93 %
26.08.2022 01:00 22,2 C 20,9 C 17,5 C 77 % 1013,5 hPa 0,0 l/m 0,00 h 0,00 h 0 W/m 10,2 km/h (2 Bft) 98,68 %
26.08.2022 02:00 21,5 C 20,4 C 17,2 C 84 % 1013,8 hPa 0,0 l/m 0,00 h 0,00 h 0 W/m 8,9 km/h (2 Bft) 93,86 %
26.08.2022 03:00 21,0 C 19,7 C 16,7 C 87 % 1014,2 hPa 0,0 l/m 0,00 h 0,00 h 0 W/m 8,3 km/h (2 Bft) 99,42 %
26.08.2022 04:00 20,5 C 19,4 C 16,4 C 91 % 1014,6 hPa 0,0 l/m 0,00 h 0,00 h 0 W/m 10,5 km/h (2 Bft) 99,71 %
26.08.2022 05:00 20,6 C 19,9 C 16,7 C 92 % 1014,7 hPa 0,0 l/m 0,00 h 0,00 h 0 W/m 12,4 km/h (3 Bft) 99,27 %
26.08.2022 06:00 20,7 C 20,0 C 16,7 C 91 % 1014,8 hPa 0,0 l/m 0,00 h 0,00 h 7 W/m 8,1 km/h (2 Bft) 99,34 %
26.08.2022 07:00 20,8 C 20,1 C 16,8 C 90 % 1014,9 hPa 0,0 l/m 0,00 h 0,00 h 28 W/m 9,9 km/h (2 Bft) 99,64 %
26.08.2022 08:00 20,9 C 20,4 C 17,0 C 89 % 1015,2 hPa 0,0 l/m 0,00 h 0,00 h 57 W/m 11,8 km/h (2 Bft) 99,56 %
26.08.2022 09:00 21,1 C 20,6 C 17,1 C 87 % 1015,5 hPa 0,0 l/m 0,00 h 0,00 h 70 W/m 13,4 km/h (3 Bft) 99,85 %
26.08.2022 10:00 21,5 C 21,2 C 17,6 C 85 % 1015,7 hPa 0,0 l/m 0,00 h 0,00 h 129 W/m 16,4 km/h (3 Bft) 98,83 %
26.08.2022 11:00 22,4 C 22,5 C 18,6 C 81 % 1015,9 hPa 0,0 l/m 0,00 h 0,00 h 218 W/m 18,8 km/h (3 Bft) 95,39 %
26.08.2022 12:00 23,4 C 23,5 C 19,5 C 78 % 1015,9 hPa 0,0 l/m 0,00 h 0,00 h 113 W/m 17,2 km/h (3 Bft) 100,00 %
26.08.2022 13:00 23,2 C 22,9 C 19,1 C 78 % 1015,7 hPa 0,0 l/m 0,00 h 0,00 h 120 W/m 16,4 km/h (3 Bft) 95,51 %
26.08.2022 14:00 22,9 C 22,3 C 18,9 C 80 % 1015,7 hPa 0,0 l/m 0,00 h 0,00 h 96 W/m 16,2 km/h (3 Bft) 98,58 %
26.08.2022 15:00 22,6 C 22,0 C 18,5 C 81 % 1015,8 hPa 0,0 l/m 0,00 h 0,00 h 109 W/m 18,4 km/h (3 Bft) 98,34 %
26.08.2022 16:00 22,9 C 23,4 C 19,0 C 80 % 1015,5 hPa 0,0 l/m 0,60 h 0,00 h 308 W/m 20,6 km/h (4 Bft) 96,02 %
26.08.2022 17:00 22,8 C 22,2 C 18,6 C 79 % 1015,5 hPa 0,0 l/m 0,00 h 0,00 h 114 W/m 19,5 km/h (3 Bft) 98,33 %
26.08.2022 18:00 22,1 C 21,3 C 17,9 C 79 % 1015,4 hPa 0,0 l/m 0,00 h 0,00 h 53 W/m 15,0 km/h (3 Bft) 97,08 %
26.08.2022 19:00 21,6 C 20,8 C 17,3 C 80 % 1015,8 hPa 0,0 l/m 0,03 h 0,00 h 32 W/m 15,6 km/h (3 Bft) 97,51 %
26.08.2022 20:00 21,2 C 20,4 C 16,9 C 79 % 1016,1 hPa 0,0 l/m 0,33 h 0,00 h 19 W/m 15,1 km/h (3 Bft) 97,65 %
26.08.2022 21:00 20,6 C 19,6 C 16,3 C 82 % 1016,3 hPa 0,0 l/m 0,00 h 0,00 h 0 W/m 15,8 km/h (3 Bft) 97,58 %
26.08.2022 22:00 20,2 C 19,4 C 16,1 C 82 % 1016,4 hPa 0,0 l/m 0,00 h 0,00 h 0 W/m 15,0 km/h (3 Bft) 97,15 %
26.08.2022 23:00 19,9 C 19,1 C 15,6 C 82 % 1016,6 hPa 0,0 l/m 0,00 h 0,00 h 0 W/m 15,2 km/h (3 Bft) 97,44 %
27.08.2022 00:00 19,5 C 18,8 C 15,3 C 83 % 1016,8 hPa 0,0 l/m 0,00 h 0,00 h 0 W/m 12,1 km/h (2 Bft) 97,16 %
27.08.2022 01:00 19,0 C 18,2 C 14,7 C 84 % 1016,9 hPa 0,0 l/m 0,00 h 0,00 h 0 W/m 10,5 km/h (2 Bft) 98,40 %
27.08.2022 02:00 18,3 C 17,3 C 13,8 C 87 % 1016,8 hPa 0,0 l/m 0,00 h 0,00 h 0 W/m 11,8 km/h (2 Bft) 96,26 %
27.08.2022 03:00 17,6 C 17,1 C 13,7 C 87 % 1016,6 hPa 0,0 l/m 0,00 h 0,00 h 0 W/m 9,0 km/h (2 Bft) 98,99 %
27.08.2022 04:00 17,8 C 17,2 C 13,9 C 84 % 1016,3 hPa 0,0 l/m 0,00 h 0,00 h 0 W/m 10,7 km/h (2 Bft) 96,82 %
27.08.2022 05:00 17,6 C 16,8 C 13,4 C 86 % 1016,2 hPa 0,0 l/m 0,00 h 0,00 h 0 W/m 9,4 km/h (2 Bft) 96,84 %
27.08.2022 06:00 17,4 C 16,7 C 13,3 C 86 % 1016,5 hPa 0,0 l/m 0,00 h 0,00 h 0 W/m 7,5 km/h (2 Bft) 98,12 %
27.08.2022 07:00 17,2 C 16,7 C 13,2 C 84 % 1016,7 hPa 0,0 l/m 0,00 h 0,00 h 11 W/m 11,8 km/h (2 Bft) 98,15 %
27.08.2022 08:00 17,5 C 17,0 C 13,4 C 82 % 1016,9 hPa 0,0 l/m 0,00 h 0,00 h 30 W/m 6,6 km/h (2 Bft) 96,16 %
27.08.2022 09:00 17,8 C 17,2 C 13,9 C 81 % 1017,0 hPa 0,0 l/m 0,00 h 0,00 h 49 W/m 6,5 km/h (2 Bft) 99,26 %
27.08.2022 10:00 18,1 C 17,7 C 14,2 C 80 % 1017,2 hPa 0,0 l/m 0,00 h 0,00 h 104 W/m 10,3 km/h (2 Bft) 96,89 %
27.08.2022 11:00 18,7 C 18,7 C 15,0 C 79 % 1017,5 hPa 0,0 l/m 0,00 h 0,00 h 192 W/m 13,2 km/h (3 Bft) 97,01 %
27.08.2022 12:00 19,5 C 19,7 C 16,0 C 76 % 1017,5 hPa 0,0 l/m 0,00 h 0,00 h 233 W/m 9,9 km/h (2 Bft) 98,23 %
27.08.2022 13:00 20,2 C 20,5 C 16,7 C 73 % 1017,4 hPa 0,0 l/m 0,00 h 0,00 h 263 W/m 8,6 km/h (2 Bft) 97,65 %
27.08.2022 14:00 20,8 C 21,0 C 17,2 C 71 % 1017,3 hPa 0,0 l/m 0,00 h 0,00 h 251 W/m 8,8 km/h (2 Bft) 96,01 %
27.08.2022 15:00 21,2 C 21,3 C 17,5 C 70 % 1017,0 hPa 0,0 l/m 0,00 h 0,00 h 221 W/m 7,1 km/h (2 Bft) 99,57 %
27.08.2022 16:00 21,8 C 21,7 C 17,8 C 68 % 1016,8 hPa 0,0 l/m 0,00 h 0,00 h 198 W/m 10,3 km/h (2 Bft) 97,17 %
27.08.2022 17:00 22,0 C 21,5 C 17,8 C 67 % 1016,8 hPa 0,0 l/m 0,00 h 0,00 h 112 W/m 7,2 km/h (2 Bft) 97,72 %
27.08.2022 18:00 21,7 C 20,8 C 17,4 C 67 % 1016,8 hPa 0,0 l/m 0,00 h 0,00 h 44 W/m 5,2 km/h (1 Bft) 97,42 %
27.08.2022 19:00 21,4 C 20,5 C 16,9 C 67 % 1016,7 hPa 0,0 l/m 0,00 h 0,00 h 14 W/m 7,2 km/h (2 Bft) 98,57 %
27.08.2022 20:00 21,0 C 20,0 C 16,7 C 68 % 1017,1 hPa 0,0 l/m 0,00 h 0,00 h 5 W/m 5,5 km/h (1 Bft) 97,16 %
27.08.2022 21:00 21,0 C 20,0 C 16,2 C 68 % 1017,5 hPa 0,0 l/m 0,00 h 0,00 h 0 W/m 5,2 km/h (1 Bft) 97,72 %
27.08.2022 22:00 20,7 C 19,7 C 16,1 C 69 % 1017,6 hPa 0,0 l/m 0,00 h 0,00 h 0 W/m 2,8 km/h (1 Bft) 98,36 %
27.08.2022 23:00 20,4 C 19,4 C 15,7 C 70 % 1017,9 hPa 0,0 l/m 0,00 h 0,00 h 0 W/m 5,6 km/h (1 Bft) 98,00 %
28.08.2022 00:00 19,8 C 18,9 C 15,3 C 70 % 1018,1 hPa 0,0 l/m 0,00 h 0,00 h 0 W/m 9,8 km/h (2 Bft) 96,65 %
28.08.2022 01:00 18,9 C 18,1 C 14,5 C 72 % 1018,2 hPa 0,0 l/m 0,00 h 0,00 h 0 W/m 10,6 km/h (2 Bft) 99,29 %
28.08.2022 02:00 18,2 C 17,3 C 13,9 C 73 % 1018,3 hPa 0,0 l/m 0,00 h 0,00 h 0 W/m 11,7 km/h (2 Bft) 96,89 %
28.08.2022 03:00 17,6 C 16,7 C 13,2 C 74 % 1018,4 hPa 0,0 l/m 0,00 h 0,00 h 0 W/m 16,2 km/h (3 Bft) 97,02 %
28.08.2022 04:00 17,0 C 16,1 C 12,8 C 77 % 1018,7 hPa 0,0 l/m 0,00 h 0,00 h 0 W/m 9,7 km/h (2 Bft) 98,93 %
28.08.2022 05:00 16,4 C 15,6 C 12,3 C 79 % 1019,1 hPa 0,0 l/m 0,00 h 0,00 h 0 W/m 6,7 km/h (2 Bft) 97,52 %
28.08.2022 06:00 15,9 C 15,1 C 11,7 C 81 % 1019,5 hPa 0,0 l/m 0,00 h 0,00 h 6 W/m 5,6 km/h (1 Bft) 97,61 %
28.08.2022 07:00 15,9 C 15,5 C 12,0 C 81 % 1019,8 hPa 0,0 l/m 0,00 h 0,00 h 29 W/m 5,6 km/h (1 Bft) 96,86 %
28.08.2022 08:00 16,1 C 16,0 C 12,4 C 82 % 1020,2 hPa 0,0 l/m 0,13 h 0,00 h 107 W/m 6,5 km/h (2 Bft) 97,36 %
28.08.2022 09:00 17,9 C 19,0 C 14,0 C 76 % 1020,5 hPa 0,0 l/m 0,63 h 0,00 h 292 W/m 12,0 km/h (2 Bft) 97,01 %
28.08.2022 10:00 18,7 C 18,7 C 14,7 C 71 % 1020,7 hPa 0,0 l/m 0,20 h 0,00 h 217 W/m 14,7 km/h (3 Bft) 99,64 %
28.08.2022 11:00 19,8 C 21,0 C 16,3 C 67 % 1020,8 hPa 0,0 l/m 0,93 h 0,00 h 677 W/m 13,0 km/h (3 Bft) 95,38 %
28.08.2022 12:00 21,5 C 27,1 C 18,3 C 61 % 1020,8 hPa 0,0 l/m 0,95 h 0,00 h 698 W/m 14,7 km/h (3 Bft) 98,37 %
28.08.2022 13:00 22,2 C 23,3 C 17,6 C 58 % 1020,8 hPa 0,0 l/m 0,70 h 0,00 h 598 W/m 14,8 km/h (3 Bft) 98,01 %
28.08.2022 14:00 23,6 C 30,2 C 18,5 C 54 % 1020,6 hPa 0,0 l/m 1,00 h 0,00 h 791 W/m 16,5 km/h (3 Bft) 97,86 %
28.08.2022 15:00 24,2 C 28,2 C 18,9 C 52 % 1020,3 hPa 0,0 l/m 1,00 h 0,00 h 727 W/m 15,5 km/h (3 Bft) 97,05 %
28.08.2022 16:00 24,4 C 27,1 C 19,4 C 50 % 1019,9 hPa 0,0 l/m 1,00 h 0,00 h 605 W/m 17,2 km/h (3 Bft) 97,66 %
28.08.2022 17:00 24,4 C 28,0 C 20,0 C 50 % 1019,8 hPa 0,0 l/m 0,98 h 0,00 h 450 W/m 15,0 km/h (3 Bft) 98,06 %
28.08.2022 18:00 24,1 C 26,8 C 19,7 C 50 % 1019,7 hPa 0,0 l/m 0,77 h 0,00 h 231 W/m 13,8 km/h (3 Bft) 96,61 %
28.08.2022 19:00 22,1 C 21,2 C 17,6 C 54 % 1019,7 hPa 0,0 l/m 0,00 h 0,00 h 29 W/m 12,5 km/h (3 Bft) 96,98 %
28.08.2022 20:00 20,6 C 19,4 C 16,1 C 57 % 1020,1 hPa 0,0 l/m 0,00 h 0,00 h 8 W/m 9,2 km/h (2 Bft) 99,30 %
28.08.2022 21:00 19,5 C 18,4 C 15,0 C 59 % 1020,7 hPa 0,0 l/m 0,00 h 0,00 h 0 W/m 9,2 km/h (2 Bft) 95,23 %
28.08.2022 22:00 18,5 C 17,4 C 14,1 C 62 % 1021,2 hPa 0,0 l/m 0,00 h 0,00 h 0 W/m 10,0 km/h (2 Bft) 98,66 %
28.08.2022 23:00 17,5 C 16,5 C 13,1 C 68 % 1021,6 hPa 0,0 l/m 0,00 h 0,00 h 0 W/m 8,4 km/h (2 Bft) 97,69 %
Min-Datum _ 22.08.22 22.08.22 22.08.22 24.08.22 25.08.22 - - - - 22.08.22 24.08.22
_ Min-Zeit 06:40 05:14 05:44 18:26 18:35 - - - - 00:02 00:02
Minimum _ 15,3 C 14,4 C 11,1 C 38 % 1012,4 hPa - - - - 0,0 km/h (0 Bft) 18,18 %
Max-Datum _ 25.08.22 24.08.22 25.08.22 22.08.22 28.08.22 22.08.22 23.08.22 22.08.22 22.08.22 26.08.22 22.08.22
_ Max-Zeit 17:45 14:28 17:15 07:56 23:40 00:00 14:05 00:00 15:04 16:08 00:18
Maximum _ 34,4 C 41,7 C 28,3 C 94 % 1021,8 hPa 0,0 l/m 0,08 h 0,00 h 970 W/m 38,6 km/h
N-NW (5 Bft)
100,00 %
Durchschnitt _ 22,8 C 22,8 C 18,0 C 69 % 1016,6 hPa #0,0 l/m #36:46 h #0 min. 271 W/m 7,6 km/h (2 Bft) 97,92 %
© 2022 W. Hausmann